Time;durP1;ratioP1;P1;durP2;ratioP2;P2;SDS_P1;SDS_P2;PMS_P1;PMS_P2;Temp;Humidity;BMP_temperature;BMP_pressure;BME280_temperature;BME280_humidity;BME280_pressure;Samples;Min_cycle;Max_cycle;Signal;HPM_P1;HPM_P2
2021/09/17 00:01:51;;;;;;;3.35;0.60;;;;;;;;;;5049574;28;20036;-59
2021/09/17 00:04:17;;;;;;;1.73;0.43;;;;;;;;;;5046852;28;20040;-58
2021/09/17 00:06:42;;;;;;;1.15;0.32;;;;;;;;;;5046096;28;20052;-59
2021/09/17 00:09:08;;;;;;;2.17;0.50;;;;;;;;;;5048439;28;20041;-59
2021/09/17 00:11:34;;;;;;;0.88;0.40;;;;;;;;;;5047515;28;20037;-59
2021/09/17 00:14:00;;;;;;;1.30;0.40;;;;;;;;;;5050562;28;20044;-59
2021/09/17 00:16:26;;;;;;;1.17;0.40;;;;;;;;;;5047860;28;20075;-58
2021/09/17 00:18:52;;;;;;;1.27;0.40;;;;;;;;;;5049507;28;20127;-58
2021/09/17 00:21:18;;;;;;;1.30;0.43;;;;;;;;;;5047397;28;20033;-58
2021/09/17 00:23:44;;;;;;;2.67;0.90;;;;;;;;;;5047475;28;20040;-59
2021/09/17 00:26:09;;;;;;;3.28;0.70;;;;;;;;;;5046834;28;20033;-59
2021/09/17 00:28:35;;;;;;;1.45;0.55;;;;;;;;;;5047536;28;20041;-58
2021/09/17 00:31:01;;;;;;;1.40;0.40;;;;;;;;;;5047875;28;20046;-57
2021/09/17 00:33:29;;;;;;;1.02;0.45;;;;;;;;;;5047130;28;20033;-58
2021/09/17 00:35:55;;;;;;;1.73;0.40;;;;;;;;;;5046476;28;20033;-59
2021/09/17 00:38:21;;;;;;;3.85;0.60;;;;;;;;;;5030047;28;20033;-57
2021/09/17 00:40:47;;;;;;;1.27;0.50;;;;;;;;;;5048397;28;20105;-57
2021/09/17 00:43:13;;;;;;;1.33;0.40;;;;;;;;;;5047866;28;20045;-57
2021/09/17 00:45:39;;;;;;;1.35;0.40;;;;;;;;;;5045208;28;20091;-58
2021/09/17 00:48:05;;;;;;;0.90;0.40;;;;;;;;;;5045543;28;20052;-58
2021/09/17 00:50:31;;;;;;;2.92;0.50;;;;;;;;;;5048058;28;20089;-56
2021/09/17 00:52:57;;;;;;;1.05;0.40;;;;;;;;;;5048166;28;20075;-58
2021/09/17 00:55:23;;;;;;;1.92;0.60;;;;;;;;;;5047232;28;20114;-57
2021/09/17 00:57:48;;;;;;;0.98;0.40;;;;;;;;;;5048456;28;20040;-57
2021/09/17 01:00:14;;;;;;;2.83;0.50;;;;;;;;;;5046968;28;20717;-57
2021/09/17 01:02:40;;;;;;;1.88;0.43;;;;;;;;;;5045121;28;20674;-58
2021/09/17 01:05:07;;;;;;;2.15;0.52;;;;;;;;;;5048472;28;20578;-57
2021/09/17 01:07:34;;;;;;;1.85;0.50;;;;;;;;;;5050066;28;20052;-58
2021/09/17 01:09:59;;;;;;;2.20;0.50;;;;;;;;;;5049659;28;20583;-57
2021/09/17 01:12:25;;;;;;;2.17;0.40;;;;;;;;;;5051134;28;20044;-57
2021/09/17 01:14:51;;;;;;;2.83;0.50;;;;;;;;;;5033216;28;20041;-58
2021/09/17 01:17:19;;;;;;;3.45;1.17;;;;;;;;;;5050278;28;20048;-58
2021/09/17 01:19:45;;;;;;;2.08;0.50;;;;;;;;;;5049832;28;20041;-58
2021/09/17 01:22:11;;;;;;;1.45;0.40;;;;;;;;;;5052296;28;20039;-58
2021/09/17 01:24:37;;;;;;;5.15;0.73;;;;;;;;;;5051659;28;20032;-57
2021/09/17 01:27:04;;;;;;;1.77;0.50;;;;;;;;;;5050736;28;20131;-58
2021/09/17 01:29:30;;;;;;;3.00;0.60;;;;;;;;;;5050010;28;20037;-58
2021/09/17 01:31:56;;;;;;;1.13;0.40;;;;;;;;;;5051408;28;20049;-58
2021/09/17 01:34:23;;;;;;;1.45;0.55;;;;;;;;;;5050391;28;20471;-56
2021/09/17 01:36:50;;;;;;;1.60;0.50;;;;;;;;;;5049398;28;20531;-58
2021/09/17 01:39:17;;;;;;;0.93;0.40;;;;;;;;;;5049862;28;20092;-57
2021/09/17 01:41:42;;;;;;;1.60;0.43;;;;;;;;;;5038405;28;20095;-58
2021/09/17 01:44:08;;;;;;;3.83;0.50;;;;;;;;;;5049543;28;20540;-57
2021/09/17 01:46:34;;;;;;;1.77;0.52;;;;;;;;;;5049037;28;20061;-57
2021/09/17 01:49:00;;;;;;;1.58;0.50;;;;;;;;;;5050843;28;20060;-57
2021/09/17 01:51:26;;;;;;;2.03;0.47;;;;;;;;;;5048583;28;20040;-58
2021/09/17 01:53:52;;;;;;;1.48;0.50;;;;;;;;;;5049268;28;20127;-57
2021/09/17 01:56:20;;;;;;;1.45;0.50;;;;;;;;;;5048357;28;20091;-58
2021/09/17 01:58:46;;;;;;;1.67;0.60;;;;;;;;;;5048678;28;20052;-57
2021/09/17 02:01:13;;;;;;;1.88;0.60;;;;;;;;;;5050816;28;21487;-57
2021/09/17 02:03:39;;;;;;;1.67;0.50;;;;;;;;;;5049618;28;20037;-58
2021/09/17 02:06:05;;;;;;;2.15;0.60;;;;;;;;;;5049168;28;20037;-57
2021/09/17 02:08:30;;;;;;;2.40;0.45;;;;;;;;;;5050114;28;20053;-57
2021/09/17 02:10:56;;;;;;;0.90;0.40;;;;;;;;;;5050244;28;20609;-62
2021/09/17 02:13:22;;;;;;;1.33;0.50;;;;;;;;;;5049199;28;20049;-57
2021/09/17 02:15:48;;;;;;;6.63;0.90;;;;;;;;;;5030115;28;20858;-57
2021/09/17 02:18:15;;;;;;;1.92;0.60;;;;;;;;;;5049303;28;20140;-57
2021/09/17 02:20:41;;;;;;;3.53;0.60;;;;;;;;;;5048202;28;20110;-56
2021/09/17 02:23:07;;;;;;;1.88;0.60;;;;;;;;;;5050065;28;20116;-58
2021/09/17 02:25:32;;;;;;;2.30;0.55;;;;;;;;;;5050882;28;20033;-57
2021/09/17 02:27:58;;;;;;;2.30;0.63;;;;;;;;;;5049733;28;20070;-57
2021/09/17 02:30:24;;;;;;;2.45;0.70;;;;;;;;;;5050733;28;20500;-58
2021/09/17 02:32:50;;;;;;;3.13;0.70;;;;;;;;;;5049168;28;20043;-56
2021/09/17 02:35:16;;;;;;;2.08;0.63;;;;;;;;;;5051347;28;20116;-55
2021/09/17 02:37:42;;;;;;;1.77;0.60;;;;;;;;;;5047212;28;20056;-56
2021/09/17 02:40:09;;;;;;;2.22;0.60;;;;;;;;;;5044947;28;20032;-56
2021/09/17 02:42:35;;;;;;;6.80;0.70;;;;;;;;;;5049541;28;20052;-57
2021/09/17 02:45:01;;;;;;;2.80;0.80;;;;;;;;;;5050323;28;20051;-56
2021/09/17 02:47:27;;;;;;;2.00;0.63;;;;;;;;;;5049159;28;20074;-56
2021/09/17 02:49:53;;;;;;;2.90;0.77;;;;;;;;;;5017020;28;20426;-57
2021/09/17 02:52:19;;;;;;;3.40;0.80;;;;;;;;;;5037642;28;20135;-57
2021/09/17 02:54:45;;;;;;;1.60;0.52;;;;;;;;;;5030322;28;20124;-57
2021/09/17 02:57:10;;;;;;;3.58;0.85;;;;;;;;;;5036943;28;20036;-57
2021/09/17 02:59:36;;;;;;;1.88;0.55;;;;;;;;;;5032061;28;20481;-57
2021/09/17 03:02:02;;;;;;;1.92;0.60;;;;;;;;;;5033888;28;20100;-55
2021/09/17 03:04:30;;;;;;;4.10;1.02;;;;;;;;;;5031616;28;20103;-54
2021/09/17 03:06:57;;;;;;;4.03;0.90;;;;;;;;;;5031653;28;20916;-55
2021/09/17 03:09:23;;;;;;;4.32;0.93;;;;;;;;;;5037674;28;20037;-55
2021/09/17 03:11:49;;;;;;;8.25;1.30;;;;;;;;;;5029619;28;20033;-56
2021/09/17 03:14:15;;;;;;;3.65;1.02;;;;;;;;;;5009506;28;20466;-55
2021/09/17 03:16:41;;;;;;;5.15;2.10;;;;;;;;;;5028301;28;20049;-55
2021/09/17 03:19:07;;;;;;;3.45;1.13;;;;;;;;;;5029075;28;20033;-56
2021/09/17 03:21:32;;;;;;;3.30;1.27;;;;;;;;;;5038419;28;20040;-56
2021/09/17 03:23:58;;;;;;;4.28;1.75;;;;;;;;;;5049696;28;20085;-56
2021/09/17 03:26:24;;;;;;;3.35;1.52;;;;;;;;;;5047397;28;20056;-55
2021/09/17 03:28:50;;;;;;;3.47;1.20;;;;;;;;;;5049877;28;20036;-55
2021/09/17 03:31:16;;;;;;;2.72;1.02;;;;;;;;;;5052109;28;20043;-55
2021/09/17 03:33:41;;;;;;;3.67;1.15;;;;;;;;;;5048107;28;20183;-54
2021/09/17 03:36:07;;;;;;;4.65;1.13;;;;;;;;;;5047078;28;20112;-53
2021/09/17 03:38:33;;;;;;;5.35;1.00;;;;;;;;;;5047550;28;20048;-55
2021/09/17 03:40:59;;;;;;;2.50;0.80;;;;;;;;;;5048750;28;20037;-56
2021/09/17 03:43:27;;;;;;;7.65;1.08;;;;;;;;;;5047631;28;20153;-55
2021/09/17 03:45:52;;;;;;;3.90;1.33;;;;;;;;;;5045960;28;20037;-55
2021/09/17 03:48:18;;;;;;;3.40;1.23;;;;;;;;;;5046353;28;20454;-55
2021/09/17 03:50:44;;;;;;;3.17;1.20;;;;;;;;;;5049060;28;20032;-55
2021/09/17 03:53:10;;;;;;;3.92;1.10;;;;;;;;;;5047897;28;20067;-57
2021/09/17 03:55:36;;;;;;;4.18;1.33;;;;;;;;;;5046451;28;20489;-56
2021/09/17 03:58:03;;;;;;;2.72;0.98;;;;;;;;;;5049225;28;20045;-57
2021/09/17 04:00:29;;;;;;;2.38;0.60;;;;;;;;;;5046561;28;20136;-56
2021/09/17 04:02:54;;;;;;;3.40;0.90;;;;;;;;;;5049154;28;20405;-55
2021/09/17 04:05:20;;;;;;;3.08;0.90;;;;;;;;;;5047060;28;20052;-54
2021/09/17 04:07:46;;;;;;;1.40;0.50;;;;;;;;;;5028398;28;20110;-56
2021/09/17 04:10:14;;;;;;;1.63;0.63;;;;;;;;;;5048347;28;20374;-56
2021/09/17 04:12:39;;;;;;;4.93;1.20;;;;;;;;;;5049033;28;20061;-55
2021/09/17 04:15:06;;;;;;;3.60;1.35;;;;;;;;;;5047663;28;20386;-57
2021/09/17 04:17:32;;;;;;;4.65;1.20;;;;;;;;;;5048056;28;20037;-56
2021/09/17 04:19:58;;;;;;;4.32;1.42;;;;;;;;;;5050279;28;20035;-55
2021/09/17 04:22:23;;;;;;;5.00;1.40;;;;;;;;;;5046615;28;20180;-56
2021/09/17 04:24:52;;;;;;;4.50;1.33;;;;;;;;;;5047736;28;20044;-56
2021/09/17 04:27:21;;;;;;;7.05;1.40;;;;;;;;;;5045813;28;20084;-56
2021/09/17 04:29:47;;;;;;;3.33;1.13;;;;;;;;;;5047776;28;20040;-57
2021/09/17 04:32:13;;;;;;;2.63;0.90;;;;;;;;;;5046284;28;20028;-55
2021/09/17 04:34:39;;;;;;;6.72;1.20;;;;;;;;;;5046722;28;22163;-57
2021/09/17 04:37:05;;;;;;;9.43;1.42;;;;;;;;;;5047551;28;20040;-56
2021/09/17 04:39:31;;;;;;;2.60;0.88;;;;;;;;;;5048411;28;20543;-57
2021/09/17 04:41:57;;;;;;;2.22;0.80;;;;;;;;;;5050475;28;20128;-58
2021/09/17 04:44:22;;;;;;;2.97;0.90;;;;;;;;;;5050732;28;20127;-55
2021/09/17 04:46:48;;;;;;;3.08;0.90;;;;;;;;;;5050032;28;20045;-57
2021/09/17 04:49:14;;;;;;;2.75;0.93;;;;;;;;;;5052041;28;20037;-57
2021/09/17 04:51:40;;;;;;;3.65;0.80;;;;;;;;;;5049632;28;20041;-57
2021/09/17 04:54:06;;;;;;;2.78;0.82;;;;;;;;;;5051553;28;20156;-57
2021/09/17 04:56:32;;;;;;;3.25;0.93;;;;;;;;;;5049669;28;20055;-56
2021/09/17 04:58:57;;;;;;;2.83;0.75;;;;;;;;;;5052274;28;20037;-56
2021/09/17 05:01:23;;;;;;;2.72;0.80;;;;;;;;;;5048989;28;20059;-55
2021/09/17 05:03:50;;;;;;;2.40;0.70;;;;;;;;;;5051015;28;20036;-53
2021/09/17 05:06:16;;;;;;;2.60;0.85;;;;;;;;;;5050165;28;20064;-57
2021/09/17 05:08:42;;;;;;;3.45;0.80;;;;;;;;;;5049879;28;20052;-56
2021/09/17 05:11:08;;;;;;;4.45;1.08;;;;;;;;;;5050643;28;20040;-54
2021/09/17 05:13:34;;;;;;;7.00;1.00;;;;;;;;;;5049642;28;20492;-57
2021/09/17 05:16:00;;;;;;;3.95;1.00;;;;;;;;;;5050270;28;20135;-57
2021/09/17 05:18:25;;;;;;;5.18;0.88;;;;;;;;;;5049018;28;20121;-56
2021/09/17 05:20:51;;;;;;;2.28;0.80;;;;;;;;;;5050385;28;20040;-57
2021/09/17 05:23:17;;;;;;;4.25;0.85;;;;;;;;;;5050446;28;20037;-57
2021/09/17 05:25:43;;;;;;;3.20;1.00;;;;;;;;;;5050495;28;20060;-54
2021/09/17 05:28:09;;;;;;;4.07;0.90;;;;;;;;;;5051075;28;20046;-57
2021/09/17 05:30:34;;;;;;;3.08;1.17;;;;;;;;;;5049644;28;20035;-57
2021/09/17 05:33:01;;;;;;;3.90;1.10;;;;;;;;;;5046500;28;20041;-57
2021/09/17 05:35:27;;;;;;;2.70;0.90;;;;;;;;;;5027399;28;20037;-58
2021/09/17 05:37:53;;;;;;;3.60;1.02;;;;;;;;;;5037912;28;20037;-56
2021/09/17 05:40:19;;;;;;;8.55;0.88;;;;;;;;;;5028502;28;20581;-57
2021/09/17 05:42:45;;;;;;;3.25;0.90;;;;;;;;;;5029279;28;20041;-57
2021/09/17 05:45:11;;;;;;;2.90;0.90;;;;;;;;;;5028931;28;20095;-57
2021/09/17 05:47:37;;;;;;;3.38;0.90;;;;;;;;;;5028984;28;20152;-57
2021/09/17 05:50:03;;;;;;;3.67;1.10;;;;;;;;;;5037091;28;20037;-57
2021/09/17 05:52:29;;;;;;;2.63;0.95;;;;;;;;;;5029716;28;20067;-58
2021/09/17 05:54:55;;;;;;;5.38;1.20;;;;;;;;;;5029234;28;20037;-54
2021/09/17 05:57:21;;;;;;;8.90;1.13;;;;;;;;;;5031474;28;20034;-57
2021/09/17 05:59:46;;;;;;;3.53;1.40;;;;;;;;;;5030999;28;20095;-57
2021/09/17 06:02:13;;;;;;;3.28;1.08;;;;;;;;;;5037363;28;20533;-56
2021/09/17 06:04:38;;;;;;;4.00;1.30;;;;;;;;;;5042435;28;20546;-57
2021/09/17 06:07:04;;;;;;;3.47;1.13;;;;;;;;;;5029095;28;20103;-57
2021/09/17 06:09:30;;;;;;;6.68;1.40;;;;;;;;;;5027549;28;20041;-58
2021/09/17 06:11:56;;;;;;;4.22;1.38;;;;;;;;;;5029667;28;20124;-57
2021/09/17 06:14:22;;;;;;;4.13;1.40;;;;;;;;;;5027485;28;20115;-58
2021/09/17 06:16:48;;;;;;;3.20;1.20;;;;;;;;;;5031408;28;20428;-57
2021/09/17 06:19:13;;;;;;;3.42;1.30;;;;;;;;;;5032032;28;20037;-58
2021/09/17 06:21:39;;;;;;;3.78;1.30;;;;;;;;;;5041720;28;20072;-58
2021/09/17 06:24:05;;;;;;;5.10;1.20;;;;;;;;;;5049896;28;20612;-57
2021/09/17 06:26:31;;;;;;;3.72;1.20;;;;;;;;;;5049062;28;20044;-57
2021/09/17 06:28:59;;;;;;;7.15;1.10;;;;;;;;;;5049202;28;20486;-57
2021/09/17 06:31:25;;;;;;;4.68;1.27;;;;;;;;;;5048222;28;20660;-57
2021/09/17 06:33:51;;;;;;;9.52;1.27;;;;;;;;;;5048599;28;20534;-55
2021/09/17 06:36:17;;;;;;;3.05;1.15;;;;;;;;;;5049163;28;20120;-56
2021/09/17 06:38:43;;;;;;;3.13;1.20;;;;;;;;;;5047841;28;20156;-56
2021/09/17 06:41:09;;;;;;;3.70;1.25;;;;;;;;;;5049199;28;20512;-58
2021/09/17 06:43:34;;;;;;;6.05;1.25;;;;;;;;;;5046619;28;20114;-58
2021/09/17 06:46:00;;;;;;;6.68;1.52;;;;;;;;;;5047702;28;20657;-62
2021/09/17 06:48:26;;;;;;;4.53;1.55;;;;;;;;;;5046965;28;20472;-58
2021/09/17 06:50:52;;;;;;;6.30;1.58;;;;;;;;;;5048466;28;20116;-58
2021/09/17 06:53:18;;;;;;;4.40;1.40;;;;;;;;;;5049173;28;20031;-58
2021/09/17 06:55:44;;;;;;;7.05;1.50;;;;;;;;;;5048674;28;20045;-57
2021/09/17 06:58:10;;;;;;;3.35;0.95;;;;;;;;;;5049681;28;20626;-56
2021/09/17 07:00:38;;;;;;;3.70;1.30;;;;;;;;;;5047728;28;20049;-55
2021/09/17 07:03:04;;;;;;;10.82;2.25;;;;;;;;;;5046333;28;20521;-57
2021/09/17 07:05:31;;;;;;;9.15;2.45;;;;;;;;;;5047162;28;20126;-56
2021/09/17 07:08:04;;;;;;;6.28;2.17;;;;;;;;;;5047474;28;20148;-58
2021/09/17 07:10:30;;;;;;;5.95;2.40;;;;;;;;;;5047990;28;20136;-57
2021/09/17 07:12:56;;;;;;;5.28;2.30;;;;;;;;;;5049810;28;20029;-57
2021/09/17 07:15:22;;;;;;;8.23;2.30;;;;;;;;;;5046530;28;20053;-57
2021/09/17 07:17:48;;;;;;;5.35;2.05;;;;;;;;;;5047318;28;20097;-58
2021/09/17 07:20:14;;;;;;;5.28;2.22;;;;;;;;;;5048528;28;20041;-57
2021/09/17 07:22:40;;;;;;;8.55;2.53;;;;;;;;;;5047295;28;20068;-56
2021/09/17 07:25:06;;;;;;;5.35;1.90;;;;;;;;;;5046849;28;20124;-57
2021/09/17 07:27:32;;;;;;;6.05;1.95;;;;;;;;;;5046346;28;20103;-57
2021/09/17 07:29:58;;;;;;;6.18;1.90;;;;;;;;;;5048138;28;20061;-57
2021/09/17 07:32:24;;;;;;;4.72;2.05;;;;;;;;;;5049075;28;20132;-56
2021/09/17 07:34:50;;;;;;;5.53;2.08;;;;;;;;;;5047313;28;20041;-56
2021/09/17 07:37:16;;;;;;;5.38;2.00;;;;;;;;;;5047902;28;20069;-56
2021/09/17 07:39:41;;;;;;;6.30;1.92;;;;;;;;;;5048820;28;20047;-55
2021/09/17 07:42:07;;;;;;;4.90;1.90;;;;;;;;;;5047204;28;20149;-56
2021/09/17 07:44:34;;;;;;;5.05;2.13;;;;;;;;;;5046467;28;20127;-57
2021/09/17 07:47:01;;;;;;;6.07;2.08;;;;;;;;;;5047191;28;20052;-57
2021/09/17 07:49:27;;;;;;;5.30;1.95;;;;;;;;;;5049534;28;20102;-58
2021/09/17 07:51:52;;;;;;;6.80;2.30;;;;;;;;;;5047396;28;20040;-57
2021/09/17 07:54:18;;;;;;;6.00;2.22;;;;;;;;;;5044626;28;20056;-57
2021/09/17 07:56:44;;;;;;;9.00;2.33;;;;;;;;;;5048249;28;20223;-57
2021/09/17 07:59:10;;;;;;;11.50;2.17;;;;;;;;;;5048766;28;20075;-56
2021/09/17 08:01:36;;;;;;;8.20;2.10;;;;;;;;;;5045695;28;20517;-56
2021/09/17 08:04:02;;;;;;;5.35;2.20;;;;;;;;;;5046483;28;20052;-56
2021/09/17 08:06:28;;;;;;;5.13;2.03;;;;;;;;;;5047972;28;20051;-57
2021/09/17 08:08:53;;;;;;;6.05;2.00;;;;;;;;;;5047746;28;20048;-57
2021/09/17 08:11:19;;;;;;;3.97;1.45;;;;;;;;;;5046142;28;20044;-58
2021/09/17 08:13:45;;;;;;;3.72;1.45;;;;;;;;;;5047567;28;20695;-56
2021/09/17 08:16:11;;;;;;;4.18;1.50;;;;;;;;;;5046482;28;20033;-54
2021/09/17 08:18:37;;;;;;;8.95;1.63;;;;;;;;;;5045910;28;21645;-57
2021/09/17 08:21:02;;;;;;;5.03;1.52;;;;;;;;;;5047508;28;20094;-56
2021/09/17 08:23:29;;;;;;;3.80;1.45;;;;;;;;;;5046381;28;20048;-57
2021/09/17 08:25:55;;;;;;;4.03;1.40;;;;;;;;;;5031744;28;20040;-57
2021/09/17 08:28:21;;;;;;;4.68;1.48;;;;;;;;;;5030615;28;20566;-54
2021/09/17 08:30:47;;;;;;;4.43;1.42;;;;;;;;;;5027492;28;20047;-55
2021/09/17 08:33:13;;;;;;;3.97;1.40;;;;;;;;;;5034549;28;20040;-55
2021/09/17 08:35:39;;;;;;;5.75;1.60;;;;;;;;;;5046162;28;20052;-55
2021/09/17 08:38:04;;;;;;;4.53;1.45;;;;;;;;;;5048274;28;20052;-57
2021/09/17 08:40:30;;;;;;;5.75;1.50;;;;;;;;;;5047124;28;20029;-57
2021/09/17 08:42:59;;;;;;;5.07;1.33;;;;;;;;;;5037168;28;20410;-57
2021/09/17 08:45:26;;;;;;;3.28;1.38;;;;;;;;;;5045367;28;20065;-56
2021/09/17 08:47:52;;;;;;;3.63;1.27;;;;;;;;;;5046057;28;20059;-58
2021/09/17 08:50:19;;;;;;;4.93;1.60;;;;;;;;;;5046653;28;20051;-56
2021/09/17 08:52:45;;;;;;;5.88;1.40;;;;;;;;;;5046694;28;20042;-56
2021/09/17 08:55:11;;;;;;;4.32;1.42;;;;;;;;;;5046970;28;20378;-56
2021/09/17 08:57:37;;;;;;;4.22;1.17;;;;;;;;;;5046700;28;20045;-56
2021/09/17 09:00:04;;;;;;;2.97;1.00;;;;;;;;;;5042268;28;20574;-56
2021/09/17 09:02:30;;;;;;;3.55;1.00;;;;;;;;;;5034498;28;20066;-57
2021/09/17 09:05:03;;;;;;;3.53;1.00;;;;;;;;;;5035121;28;20105;-57
2021/09/17 09:07:31;;;;;;;2.10;0.60;;;;;;;;;;5026716;28;20049;-57
2021/09/17 09:10:03;;;;;;;3.50;1.08;;;;;;;;;;5041544;28;20036;-57
2021/09/17 09:12:29;;;;;;;2.67;0.80;;;;;;;;;;5046013;28;20052;-57
2021/09/17 09:15:15;;;;;;;2.95;1.00;;;;;;;;;;5046995;28;20389;-56
2021/09/17 09:17:42;;;;;;;3.30;0.80;;;;;;;;;;5045272;28;20041;-57
2021/09/17 09:20:34;;;;;;;2.85;0.88;;;;;;;;;;5048869;28;20044;-57
2021/09/17 09:23:05;;;;;;;3.72;1.00;;;;;;;;;;5041985;28;20040;-58
2021/09/17 09:25:32;;;;;;;9.48;1.10;;;;;;;;;;5049414;28;20650;-56
2021/09/17 09:28:09;;;;;;;2.58;0.82;;;;;;;;;;5050141;28;20045;-55
2021/09/17 09:30:35;;;;;;;5.50;0.75;;;;;;;;;;5050113;28;20063;-56
2021/09/17 09:33:19;;;;;;;2.05;0.73;;;;;;;;;;5049132;28;20128;-53
2021/09/17 09:35:45;;;;;;;9.90;0.82;;;;;;;;;;5052099;28;20087;-55
2021/09/17 09:38:11;;;;;;;2.47;0.80;;;;;;;;;;5050591;28;20101;-57
2021/09/17 09:40:38;;;;;;;5.20;1.90;;;;;;;;;;5050426;28;22649;-55
2021/09/17 09:43:03;;;;;;;2.92;0.77;;;;;;;;;;5051672;28;20056;-56
2021/09/17 09:45:29;;;;;;;10.00;0.95;;;;;;;;;;5031661;28;20438;-56
2021/09/17 09:47:56;;;;;;;1.77;0.60;;;;;;;;;;5048251;28;20133;-57
2021/09/17 09:50:24;;;;;;;4.68;0.70;;;;;;;;;;5049136;28;20083;-54
2021/09/17 09:53:00;;;;;;;2.55;0.73;;;;;;;;;;5051144;28;20389;-57
2021/09/17 09:55:27;;;;;;;2.70;0.68;;;;;;;;;;5050704;28;20124;-57
2021/09/17 09:57:54;;;;;;;6.70;0.90;;;;;;;;;;5050392;28;20315;-56
2021/09/17 10:00:20;;;;;;;2.28;0.70;;;;;;;;;;5050095;28;20037;-57
2021/09/17 10:02:45;;;;;;;4.22;0.88;;;;;;;;;;5050617;28;20033;-56
2021/09/17 10:05:15;;;;;;;3.35;0.68;;;;;;;;;;5049556;28;20029;-56
2021/09/17 10:07:43;;;;;;;2.42;0.90;;;;;;;;;;5049182;28;20052;-56
2021/09/17 10:10:10;;;;;;;4.53;0.90;;;;;;;;;;5048653;28;20037;-56
2021/09/17 10:12:37;;;;;;;2.58;0.80;;;;;;;;;;5048546;28;20123;-55
2021/09/17 10:15:03;;;;;;;2.95;0.90;;;;;;;;;;5049764;28;20067;-56
2021/09/17 10:17:30;;;;;;;2.20;0.85;;;;;;;;;;5048363;28;20047;-57
2021/09/17 10:19:57;;;;;;;3.70;1.10;;;;;;;;;;5049902;28;20044;-54
2021/09/17 10:22:40;;;;;;;2.60;0.80;;;;;;;;;;5047796;28;20056;-55
2021/09/17 10:25:13;;;;;;;4.50;1.00;;;;;;;;;;5048675;28;20044;-57
2021/09/17 10:27:41;;;;;;;4.13;0.80;;;;;;;;;;5048711;28;20049;-56
2021/09/17 10:30:08;;;;;;;6.25;0.77;;;;;;;;;;5052890;28;20052;-55
2021/09/17 10:32:37;;;;;;;2.65;0.80;;;;;;;;;;5048677;28;20035;-57
2021/09/17 10:35:12;;;;;;;2.70;0.90;;;;;;;;;;5048788;28;20528;-56
2021/09/17 10:37:56;;;;;;;7.75;1.17;;;;;;;;;;5048335;28;20083;-55
2021/09/17 10:40:32;;;;;;;3.08;0.93;;;;;;;;;;5047493;28;20056;-56
2021/09/17 10:43:11;;;;;;;3.95;0.85;;;;;;;;;;5049409;28;20041;-56
2021/09/17 10:45:38;;;;;;;4.28;1.05;;;;;;;;;;5049257;28;20036;-56
2021/09/17 10:48:04;;;;;;;5.18;0.70;;;;;;;;;;5050247;28;20055;-55
2021/09/17 10:50:45;;;;;;;5.68;1.02;;;;;;;;;;5049146;28;20037;-55
2021/09/17 10:53:11;;;;;;;6.55;1.10;;;;;;;;;;5049422;28;20451;-56
2021/09/17 10:55:53;;;;;;;5.60;1.23;;;;;;;;;;5035611;28;20051;-54
2021/09/17 10:58:24;;;;;;;3.95;1.20;;;;;;;;;;5050238;28;20124;-55
2021/09/17 11:00:53;;;;;;;7.78;1.30;;;;;;;;;;5049427;28;20037;-56
2021/09/17 11:03:37;;;;;;;3.35;1.15;;;;;;;;;;5050284;28;20044;-56
2021/09/17 11:06:36;;;;;;;5.78;1.30;;;;;;;;;;5050375;28;20036;-56
2021/09/17 11:09:01;;;;;;;9.70;1.40;;;;;;;;;;4995407;28;20048;-56
2021/09/17 11:11:29;;;;;;;2.67;0.95;;;;;;;;;;5048184;28;20033;-57
2021/09/17 11:13:56;;;;;;;6.82;1.50;;;;;;;;;;5048126;28;20032;-56
2021/09/17 11:16:23;;;;;;;7.47;1.30;;;;;;;;;;5047265;28;20642;-56
2021/09/17 11:18:59;;;;;;;5.32;1.35;;;;;;;;;;5048249;28;20045;-56
2021/09/17 11:21:26;;;;;;;9.88;1.60;;;;;;;;;;5046725;28;20041;-57
2021/09/17 11:23:52;;;;;;;8.57;1.30;;;;;;;;;;5050325;28;20156;-57
2021/09/17 11:26:19;;;;;;;5.60;1.67;;;;;;;;;;5045904;28;20048;-57
2021/09/17 11:28:56;;;;;;;4.72;1.30;;;;;;;;;;5047540;28;20083;-57
2021/09/17 11:31:22;;;;;;;6.38;1.50;;;;;;;;;;5047345;28;20707;-54
2021/09/17 11:33:55;;;;;;;6.72;1.55;;;;;;;;;;5046230;28;20047;-56
2021/09/17 11:36:32;;;;;;;4.25;1.58;;;;;;;;;;5045869;28;20123;-55
2021/09/17 11:39:09;;;;;;;5.25;1.23;;;;;;;;;;5049279;28;20067;-57
2021/09/17 11:41:36;;;;;;;3.75;1.33;;;;;;;;;;5049590;28;20604;-58
2021/09/17 11:44:02;;;;;;;4.97;1.65;;;;;;;;;;5048512;28;20471;-57
2021/09/17 11:46:28;;;;;;;7.75;1.38;;;;;;;;;;5048808;28;20049;-57
2021/09/17 11:48:54;;;;;;;4.65;1.58;;;;;;;;;;5043445;28;20033;-57
2021/09/17 11:51:21;;;;;;;5.07;1.30;;;;;;;;;;5036121;28;20398;-57
2021/09/17 11:53:47;;;;;;;8.80;1.48;;;;;;;;;;5040208;28;20041;-56
2021/09/17 11:56:13;;;;;;;7.22;1.33;;;;;;;;;;5049269;28;20036;-56
2021/09/17 11:58:46;;;;;;;7.88;1.52;;;;;;;;;;5037438;28;20045;-56
2021/09/17 12:01:25;;;;;;;3.33;1.05;;;;;;;;;;5030704;28;20096;-57
2021/09/17 12:03:52;;;;;;;3.15;1.08;;;;;;;;;;5037497;28;20029;-57
2021/09/17 12:06:18;;;;;;;7.93;1.63;;;;;;;;;;5031663;28;20106;-57
2021/09/17 12:08:44;;;;;;;6.45;1.35;;;;;;;;;;5028231;28;20056;-56
2021/09/17 12:11:11;;;;;;;7.28;1.30;;;;;;;;;;5028406;28;20049;-57
2021/09/17 12:13:37;;;;;;;7.82;1.90;;;;;;;;;;5030448;28;20036;-55
2021/09/17 12:16:09;;;;;;;10.55;1.60;;;;;;;;;;5029666;28;20048;-57
2021/09/17 12:18:34;;;;;;;2.80;1.05;;;;;;;;;;5026417;28;20053;-56
2021/09/17 12:21:02;;;;;;;3.78;1.42;;;;;;;;;;5043006;28;20524;-56
2021/09/17 12:23:31;;;;;;;4.88;1.20;;;;;;;;;;5048855;28;20131;-54
2021/09/17 12:26:05;;;;;;;7.80;1.50;;;;;;;;;;5047808;28;20577;-56
2021/09/17 12:28:31;;;;;;;4.32;1.30;;;;;;;;;;5027757;28;20044;-55
2021/09/17 12:30:57;;;;;;;2.67;1.00;;;;;;;;;;5046856;28;20044;-56
2021/09/17 12:33:26;;;;;;;3.65;1.02;;;;;;;;;;5047469;28;20044;-55
2021/09/17 12:35:53;;;;;;;3.70;1.20;;;;;;;;;;5048649;28;20044;-57
2021/09/17 12:38:23;;;;;;;3.47;1.10;;;;;;;;;;5046499;28;20470;-53
2021/09/17 12:40:51;;;;;;;3.30;1.30;;;;;;;;;;5046045;28;20212;-56
2021/09/17 12:43:23;;;;;;;4.65;1.10;;;;;;;;;;5022084;28;20053;-56
2021/09/17 12:46:00;;;;;;;5.03;0.88;;;;;;;;;;5020809;28;20048;-58
2021/09/17 12:48:29;;;;;;;2.30;0.80;;;;;;;;;;5004234;28;20104;-58
2021/09/17 12:50:55;;;;;;;3.33;1.20;;;;;;;;;;5007960;28;20084;-57
2021/09/17 12:53:22;;;;;;;4.28;1.17;;;;;;;;;;4995258;28;20042;-57
2021/09/17 12:56:03;;;;;;;3.65;0.90;;;;;;;;;;4979464;28;20045;-56
2021/09/17 12:58:30;;;;;;;3.63;0.95;;;;;;;;;;4987798;28;20049;-56
2021/09/17 13:00:56;;;;;;;2.58;0.73;;;;;;;;;;5008869;28;20163;-56
2021/09/17 13:03:23;;;;;;;2.85;0.90;;;;;;;;;;4990274;28;20046;-57
2021/09/17 13:05:50;;;;;;;5.68;1.20;;;;;;;;;;5021476;28;20509;-55
2021/09/17 13:08:17;;;;;;;2.95;1.05;;;;;;;;;;5012447;28;20053;-57
2021/09/17 13:10:43;;;;;;;4.13;1.08;;;;;;;;;;5029419;28;20414;-56
2021/09/17 13:13:09;;;;;;;4.22;1.10;;;;;;;;;;5030076;28;20053;-56
2021/09/17 13:15:36;;;;;;;1.98;0.80;;;;;;;;;;5030179;28;20044;-57
2021/09/17 13:18:02;;;;;;;7.47;0.85;;;;;;;;;;5031020;28;20045;-57
2021/09/17 13:20:28;;;;;;;3.92;1.20;;;;;;;;;;5029959;28;20045;-57
2021/09/17 13:22:54;;;;;;;3.50;1.00;;;;;;;;;;5033034;28;20092;-56
2021/09/17 13:25:21;;;;;;;2.60;0.93;;;;;;;;;;5031214;28;20037;-56
2021/09/17 13:27:50;;;;;;;3.95;0.95;;;;;;;;;;5033317;28;20049;-57
2021/09/17 13:30:18;;;;;;;3.60;1.30;;;;;;;;;;5031218;28;20037;-57
2021/09/17 13:32:43;;;;;;;3.88;0.90;;;;;;;;;;5030195;28;20293;-56
2021/09/17 13:35:10;;;;;;;5.70;1.17;;;;;;;;;;5027691;28;20046;-57
2021/09/17 13:37:38;;;;;;;4.35;1.17;;;;;;;;;;5029149;28;20375;-57
2021/09/17 13:40:05;;;;;;;2.95;0.98;;;;;;;;;;5030002;28;20033;-57
2021/09/17 13:42:31;;;;;;;3.15;1.23;;;;;;;;;;5041720;28;20084;-57
2021/09/17 13:44:57;;;;;;;2.90;0.95;;;;;;;;;;5050324;28;21032;-57
2021/09/17 13:47:23;;;;;;;2.65;0.90;;;;;;;;;;5048782;28;20048;-57
2021/09/17 13:49:49;;;;;;;2.35;0.85;;;;;;;;;;5050807;28;20051;-55
2021/09/17 13:52:14;;;;;;;4.07;0.98;;;;;;;;;;5049405;28;20056;-57
2021/09/17 13:54:40;;;;;;;2.92;1.08;;;;;;;;;;5049043;28;20090;-57
2021/09/17 13:57:07;;;;;;;3.55;0.98;;;;;;;;;;5050433;28;20119;-56
2021/09/17 13:59:34;;;;;;;2.92;1.10;;;;;;;;;;5049068;28;20036;-56
2021/09/17 14:02:00;;;;;;;3.53;1.10;;;;;;;;;;5049773;28;20060;-57
2021/09/17 14:04:26;;;;;;;2.83;0.90;;;;;;;;;;5048030;28;20934;-57
2021/09/17 14:06:52;;;;;;;4.63;1.17;;;;;;;;;;5049534;28;20121;-57
2021/09/17 14:09:18;;;;;;;9.13;1.10;;;;;;;;;;5049090;28;20037;-57
2021/09/17 14:11:44;;;;;;;5.95;1.27;;;;;;;;;;5048999;28;20037;-57
2021/09/17 14:14:09;;;;;;;3.20;1.00;;;;;;;;;;5048332;28;20066;-57
2021/09/17 14:16:35;;;;;;;5.10;1.45;;;;;;;;;;5031284;28;20036;-57
2021/09/17 14:19:01;;;;;;;5.00;1.25;;;;;;;;;;5049120;28;20045;-56
2021/09/17 14:21:28;;;;;;;5.05;1.30;;;;;;;;;;5048790;28;20650;-58
2021/09/17 14:23:54;;;;;;;8.70;1.38;;;;;;;;;;5048881;28;20045;-56
2021/09/17 14:26:20;;;;;;;8.00;1.25;;;;;;;;;;5048442;28;20045;-56
2021/09/17 14:28:49;;;;;;;3.85;0.95;;;;;;;;;;5049607;28;20458;-57
2021/09/17 14:31:16;;;;;;;16.60;1.58;;;;;;;;;;5047964;28;20065;-57
2021/09/17 14:33:42;;;;;;;8.75;1.27;;;;;;;;;;5046501;28;20594;-57
2021/09/17 14:36:08;;;;;;;5.80;1.20;;;;;;;;;;5048552;28;20045;-57
2021/09/17 14:38:33;;;;;;;5.57;1.10;;;;;;;;;;5050238;28;20036;-57
2021/09/17 14:40:59;;;;;;;3.72;1.05;;;;;;;;;;5049848;28;20128;-56
2021/09/17 14:43:25;;;;;;;10.65;1.38;;;;;;;;;;5049103;28;20060;-56